Time;durP1;ratioP1;P1;durP2;ratioP2;P2;SDS_P1;SDS_P2;PMS_P1;PMS_P2;Temp;Humidity;BMP_temperature;BMP_pressure;BME280_temperature;BME280_humidity;BME280_pressure;Samples;Min_cycle;Max_cycle;Signal;HPM_P1;HPM_P2
2023/02/08 00:00:06;;;;;;;6.78;3.83;;;1.00;99.90;;;;;;9952902;28;20089;-68
2023/02/08 00:04:57;;;;;;;7.63;4.20;;;1.00;99.90;;;;;;9938300;28;20073;-66
2023/02/08 00:09:48;;;;;;;9.80;4.70;;;1.00;99.90;;;;;;9938290;28;20524;-64
2023/02/08 00:14:38;;;;;;;10.55;4.22;;;1.00;99.90;;;;;;9952088;28;20066;-65
2023/02/08 00:19:29;;;;;;;8.05;4.00;;;0.90;99.90;;;;;;9948602;28;20307;-69
2023/02/08 00:24:20;;;;;;;10.13;4.13;;;1.00;99.90;;;;;;9935356;28;20394;-69
2023/02/08 00:29:10;;;;;;;8.30;3.97;;;0.90;99.90;;;;;;9920011;28;20027;-71
2023/02/08 00:34:01;;;;;;;7.20;3.92;;;0.80;99.90;;;;;;9940063;28;20082;-71
2023/02/08 00:38:52;;;;;;;10.18;4.25;;;0.80;99.90;;;;;;9920607;28;20030;-71
2023/02/08 00:43:42;;;;;;;7.80;3.78;;;0.70;99.90;;;;;;9938233;28;20042;-71
2023/02/08 00:48:33;;;;;;;5.40;3.35;;;0.80;99.90;;;;;;9943547;28;20027;-70
2023/02/08 00:53:24;;;;;;;7.47;4.13;;;0.70;99.90;;;;;;9939006;28;20492;-69
2023/02/08 00:58:15;;;;;;;7.90;3.60;;;0.70;99.90;;;;;;9943149;28;20046;-69
2023/02/08 01:03:05;;;;;;;7.05;4.40;;;0.70;99.90;;;;;;9939892;28;20046;-70
2023/02/08 01:07:56;;;;;;;7.93;3.80;;;0.60;99.90;;;;;;9953472;28;20046;-70
2023/02/08 01:12:47;;;;;;;6.57;3.30;;;0.60;99.90;;;;;;9962288;28;20074;-69
2023/02/08 01:17:38;;;;;;;5.95;3.65;;;0.50;99.90;;;;;;9949260;28;20027;-70
2023/02/08 01:22:29;;;;;;;7.78;4.40;;;0.50;99.90;;;;;;9964000;28;20342;-70
2023/02/08 01:27:19;;;;;;;8.57;3.55;;;0.50;99.90;;;;;;9966797;28;20030;-72
2023/02/08 01:32:10;;;;;;;8.90;3.88;;;0.40;99.90;;;;;;9964773;28;20031;-71
2023/02/08 01:37:01;;;;;;;9.43;3.63;;;0.40;99.90;;;;;;9938852;28;20042;-72
2023/02/08 01:41:51;;;;;;;7.88;3.80;;;0.40;99.90;;;;;;9946489;28;20465;-70
2023/02/08 01:46:50;;;;;;;11.90;4.45;;;0.40;99.90;;;;;;9961346;28;20086;-69
2023/02/08 01:51:46;;;;;;;11.05;4.78;;;0.30;99.90;;;;;;9964618;28;20027;-70
2023/02/08 01:56:42;;;;;;;8.50;4.80;;;0.30;99.90;;;;;;9962480;28;20109;-72
2023/02/08 02:01:33;;;;;;;11.10;5.33;;;0.20;99.90;;;;;;9955079;28;20049;-73
2023/02/08 02:06:28;;;;;;;9.10;4.30;;;0.20;99.90;;;;;;9966778;28;20035;-73
2023/02/08 02:11:19;;;;;;;7.35;3.85;;;0.10;99.90;;;;;;9961069;28;20406;-72
2023/02/08 02:16:10;;;;;;;9.35;4.68;;;0.10;99.90;;;;;;9945303;28;20046;-71
2023/02/08 02:21:21;;;;;;;10.55;3.75;;;0.10;99.90;;;;;;9946849;28;20053;-69
2023/02/08 02:26:42;;;;;;;8.20;4.43;;;0.10;99.90;;;;;;9929190;28;20106;-71
2023/02/08 02:31:54;;;;;;;9.75;3.65;;;0.10;99.90;;;;;;9927711;28;20073;-69
2023/02/08 02:36:52;;;;;;;6.95;3.67;;;0.10;99.90;;;;;;9943533;28;20628;-70
2023/02/08 02:47:32;;;;;;;8.35;4.32;;;0.10;99.90;;;;;;9937839;28;20045;-71
2023/02/08 02:52:39;;;;;;;6.72;3.13;;;0.00;99.90;;;;;;9941588;28;20026;-70
2023/02/08 02:57:32;;;;;;;7.30;3.78;;;0.00;99.90;;;;;;9951035;28;20142;-69
2023/02/08 03:02:25;;;;;;;7.45;3.88;;;-0.10;99.90;;;;;;9943947;28;20041;-68
2023/02/08 03:07:18;;;;;;;9.38;4.22;;;-0.10;99.90;;;;;;9941621;28;20105;-68
2023/02/08 03:12:15;;;;;;;9.40;4.15;;;-0.10;99.90;;;;;;9941033;28;20039;-69
2023/02/08 03:17:06;;;;;;;8.27;3.78;;;-0.20;99.90;;;;;;9937589;28;20065;-70
2023/02/08 03:22:04;;;;;;;10.93;4.38;;;-0.20;99.90;;;;;;9940954;28;20524;-68
2023/02/08 03:27:08;;;;;;;8.57;3.65;;;-0.10;99.90;;;;;;9940696;28;20029;-68
2023/02/08 03:32:09;;;;;;;7.70;3.58;;;-0.20;99.90;;;;;;9941295;28;20121;-70
2023/02/08 03:37:08;;;;;;;8.82;4.90;;;-0.30;99.90;;;;;;9935364;28;20458;-71
2023/02/08 03:42:03;;;;;;;8.07;4.20;;;-0.30;99.90;;;;;;9940759;28;20530;-71
2023/02/08 03:47:01;;;;;;;6.88;3.80;;;-0.30;99.90;;;;;;9941744;28;20400;-71
2023/02/08 03:51:55;;;;;;;6.45;3.33;;;-0.20;99.90;;;;;;9946030;28;20057;-67
2023/02/08 03:57:11;;;;;;;5.65;3.95;;;-0.20;99.90;;;;;;9948485;28;20019;-71
2023/02/08 04:02:05;;;;;;;9.90;4.20;;;-0.20;99.90;;;;;;9939618;28;20038;-69
2023/02/08 04:06:55;;;;;;;6.75;3.53;;;-0.20;99.90;;;;;;9936377;28;20033;-70
2023/02/08 04:11:46;;;;;;;6.45;3.33;;;-0.30;99.90;;;;;;9939968;28;20037;-70
2023/02/08 04:16:37;;;;;;;8.85;3.55;;;-0.30;99.90;;;;;;9936996;28;20113;-73
2023/02/08 04:21:27;;;;;;;7.10;3.90;;;-0.20;99.90;;;;;;9943797;28;20043;-70
2023/02/08 04:26:18;;;;;;;7.05;3.13;;;-0.20;99.90;;;;;;9946737;28;20023;-71
2023/02/08 04:31:08;;;;;;;4.60;3.72;;;-0.30;99.90;;;;;;9943984;28;20043;-70
2023/02/08 04:35:59;;;;;;;9.93;3.90;;;-0.40;99.90;;;;;;9940756;28;20019;-69
2023/02/08 04:40:50;;;;;;;9.88;3.85;;;-0.40;99.90;;;;;;9939971;28;20057;-70
2023/02/08 04:45:41;;;;;;;6.15;3.38;;;-0.40;99.90;;;;;;9940016;28;20023;-73
2023/02/08 04:50:32;;;;;;;7.55;3.03;;;-0.40;99.90;;;;;;9922636;28;20034;-74
2023/02/08 04:55:23;;;;;;;7.60;3.13;;;-0.50;99.90;;;;;;9947517;28;20019;-71
2023/02/08 05:00:14;;;;;;;6.45;3.10;;;-0.50;99.90;;;;;;9938678;28;20034;-71
2023/02/08 05:05:05;;;;;;;4.10;3.00;;;-0.50;99.90;;;;;;9934110;28;20054;-72
2023/02/08 05:09:55;;;;;;;5.30;3.67;;;-0.50;99.90;;;;;;9935403;28;20591;-71
2023/02/08 05:14:46;;;;;;;4.07;2.90;;;-0.50;99.90;;;;;;9946547;28;20158;-71
2023/02/08 05:19:37;;;;;;;7.82;3.75;;;-0.50;99.90;;;;;;9940904;28;20034;-68
2023/02/08 05:24:28;;;;;;;5.63;4.05;;;-0.60;99.90;;;;;;9946409;28;20034;-70
2023/02/08 05:29:18;;;;;;;8.00;2.92;;;-0.60;99.90;;;;;;9938501;28;20287;-70
2023/02/08 05:34:09;;;;;;;3.95;2.88;;;-0.70;99.90;;;;;;9938008;28;20031;-70
2023/02/08 05:39:00;;;;;;;5.07;2.70;;;-0.70;99.90;;;;;;9945343;28;20404;-70
2023/02/08 05:43:51;;;;;;;7.00;3.22;;;-0.70;99.90;;;;;;9938425;28;20038;-70
2023/02/08 05:48:42;;;;;;;9.65;3.83;;;-0.70;99.90;;;;;;9920779;28;20045;-70
2023/02/08 05:53:32;;;;;;;7.90;3.38;;;-0.70;99.90;;;;;;9946746;28;20493;-71
2023/02/08 05:58:24;;;;;;;9.00;3.97;;;-0.80;99.90;;;;;;9965229;28;20122;-70
2023/02/08 06:03:14;;;;;;;7.63;3.15;;;-0.80;99.90;;;;;;9943146;28;20039;-68
2023/02/08 06:08:05;;;;;;;6.85;3.63;;;-0.70;99.90;;;;;;9945128;28;20049;-68
2023/02/08 06:12:56;;;;;;;7.85;4.63;;;-0.80;99.90;;;;;;9963475;28;20210;-68
2023/02/08 06:17:47;;;;;;;6.65;4.35;;;-0.80;99.90;;;;;;9958564;28;20027;-67
2023/02/08 06:22:38;;;;;;;9.63;4.38;;;-0.80;99.90;;;;;;9954941;28;20081;-69
2023/02/08 06:27:28;;;;;;;4.90;3.10;;;-0.70;99.90;;;;;;9942589;28;20023;-68
2023/02/08 06:32:19;;;;;;;8.70;4.07;;;-0.80;99.90;;;;;;9926338;28;20030;-70
2023/02/08 06:37:10;;;;;;;6.35;3.88;;;-0.90;99.90;;;;;;9942263;28;20104;-71
2023/02/08 06:42:00;;;;;;;8.18;4.25;;;-0.90;99.90;;;;;;9918607;28;20122;-65
2023/02/08 06:46:51;;;;;;;7.28;4.03;;;-0.80;99.90;;;;;;9945028;28;20042;-66
2023/02/08 06:51:42;;;;;;;8.95;3.88;;;-0.80;99.90;;;;;;9940746;28;20035;-67
2023/02/08 06:56:33;;;;;;;7.28;3.67;;;-0.80;99.90;;;;;;9954850;28;20417;-68
2023/02/08 07:01:23;;;;;;;7.63;2.97;;;-0.80;99.90;;;;;;9943983;28;20039;-69
2023/02/08 07:06:16;;;;;;;8.60;3.85;;;-0.90;99.90;;;;;;9942342;28;20022;-69
2023/02/08 07:11:11;;;;;;;9.32;4.00;;;-0.80;99.90;;;;;;9941918;28;20034;-68
2023/02/08 07:16:04;;;;;;;9.10;4.23;;;-0.90;99.90;;;;;;9934996;28;20501;-67
2023/02/08 07:20:54;;;;;;;9.10;4.03;;;-0.80;99.90;;;;;;9950575;28;20049;-68
2023/02/08 07:25:45;;;;;;;8.85;4.63;;;-0.70;99.90;;;;;;9941747;28;20025;-68
2023/02/08 07:30:36;;;;;;;9.73;4.57;;;-0.60;99.90;;;;;;9941067;28;20154;-68
2023/02/08 07:35:26;;;;;;;10.45;3.95;;;-0.60;99.90;;;;;;9939185;28;20133;-70
2023/02/08 07:40:17;;;;;;;8.80;4.18;;;-0.70;99.90;;;;;;9940517;28;20039;-69
2023/02/08 07:45:08;;;;;;;7.82;3.72;;;-0.60;99.90;;;;;;9939381;28;20692;-69
2023/02/08 07:49:59;;;;;;;9.25;4.20;;;-0.70;99.90;;;;;;9938411;28;20035;-71
2023/02/08 07:54:49;;;;;;;9.02;4.82;;;-0.60;99.90;;;;;;9939675;28;20117;-70
2023/02/08 07:59:40;;;;;;;8.70;3.72;;;-0.50;99.90;;;;;;9920893;28;20037;-69
2023/02/08 08:04:31;;;;;;;11.70;3.55;;;-0.50;99.90;;;;;;9937957;28;20043;-69
2023/02/08 08:09:23;;;;;;;5.78;3.88;;;-0.50;99.90;;;;;;9939175;28;20584;-71
2023/02/08 08:14:13;;;;;;;8.35;3.55;;;-0.50;99.90;;;;;;9937490;28;20047;-69
2023/02/08 08:19:04;;;;;;;9.23;3.70;;;-0.40;99.90;;;;;;9939022;28;20026;-71
2023/02/08 08:23:55;;;;;;;9.90;4.82;;;-0.30;99.90;;;;;;9937899;28;20034;-72
2023/02/08 08:28:47;;;;;;;7.32;4.15;;;-0.30;99.90;;;;;;9920906;28;20066;-72
2023/02/08 08:33:38;;;;;;;10.65;5.07;;;-0.20;99.90;;;;;;9937737;28;20117;-70
2023/02/08 08:38:29;;;;;;;10.32;4.90;;;-0.20;99.90;;;;;;9937503;28;20472;-70
2023/02/08 08:43:19;;;;;;;9.52;4.28;;;-0.10;99.90;;;;;;9920163;28;20505;-69
2023/02/08 08:48:10;;;;;;;10.45;4.72;;;0.00;99.90;;;;;;9936689;28;20065;-69
2023/02/08 08:53:01;;;;;;;11.27;3.53;;;0.10;99.90;;;;;;9921624;28;20049;-71
2023/02/08 08:57:52;;;;;;;9.13;4.32;;;0.20;99.90;;;;;;9938296;28;20030;-71
2023/02/08 09:02:43;;;;;;;12.98;4.95;;;0.30;99.90;;;;;;9936170;28;20150;-70
2023/02/08 09:07:34;;;;;;;12.35;5.30;;;0.40;99.90;;;;;;9920094;28;20122;-69
2023/02/08 09:12:24;;;;;;;11.00;4.97;;;0.40;99.90;;;;;;9935647;28;20050;-69
2023/02/08 09:17:15;;;;;;;12.65;5.32;;;0.60;99.90;;;;;;9937204;28;20042;-70
2023/02/08 09:22:06;;;;;;;5.90;3.95;;;0.70;99.90;;;;;;9935561;28;20041;-69
2023/02/08 09:26:57;;;;;;;8.52;5.50;;;0.90;99.90;;;;;;9926255;28;20036;-70
2023/02/08 09:31:47;;;;;;;10.02;4.32;;;0.90;99.90;;;;;;9951443;28;20038;-67
2023/02/08 09:36:40;;;;;;;11.82;4.22;;;1.00;99.90;;;;;;9943719;28;20015;-69
2023/02/08 09:42:05;;;;;;;10.85;4.95;;;1.20;99.90;;;;;;9943734;28;20126;-70
2023/02/08 09:47:02;;;;;;;9.00;4.35;;;1.30;99.90;;;;;;9938888;28;20019;-65
2023/02/08 09:52:00;;;;;;;11.45;4.90;;;1.40;99.90;;;;;;9941364;28;20058;-67
2023/02/08 09:56:52;;;;;;;10.75;5.85;;;1.40;99.90;;;;;;9925721;28;20019;-65
2023/02/08 10:01:45;;;;;;;32.28;14.88;;;1.60;99.90;;;;;;9939392;28;20043;-66
2023/02/08 10:06:36;;;;;;;18.95;9.02;;;1.80;99.90;;;;;;9940829;28;20030;-65
2023/02/08 10:11:27;;;;;;;12.52;6.78;;;2.00;99.90;;;;;;9924498;28;20533;-68
2023/02/08 10:16:40;;;;;;;12.98;6.20;;;1.90;99.90;;;;;;9941307;28;20046;-67
2023/02/08 10:21:37;;;;;;;10.02;4.93;;;2.00;99.90;;;;;;9941723;28;20037;-68
2023/02/08 10:26:47;;;;;;;12.73;5.25;;;2.10;99.90;;;;;;9941307;28;20026;-67
2023/02/08 10:31:53;;;;;;;9.88;4.78;;;2.20;99.90;;;;;;9939909;28;20484;-68
2023/02/08 10:36:44;;;;;;;8.53;4.17;;;2.30;99.90;;;;;;9940052;28;20029;-68
2023/02/08 10:41:36;;;;;;;11.18;5.03;;;2.40;99.90;;;;;;9922974;28;20045;-67
2023/02/08 10:46:54;;;;;;;13.10;5.20;;;2.50;99.90;;;;;;9941542;28;20035;-67
2023/02/08 10:51:46;;;;;;;12.50;5.63;;;2.60;99.90;;;;;;9943002;28;20493;-69
2023/02/08 10:56:43;;;;;;;8.23;4.75;;;2.70;99.90;;;;;;9944669;28;20029;-70
2023/02/08 11:01:33;;;;;;;10.63;4.97;;;2.70;99.90;;;;;;9937780;28;20101;-70
2023/02/08 11:06:26;;;;;;;9.10;4.97;;;2.80;99.90;;;;;;9939849;28;20035;-71
2023/02/08 11:11:17;;;;;;;9.95;5.30;;;3.00;99.90;;;;;;9939650;28;20037;-66
2023/02/08 11:16:19;;;;;;;11.40;4.07;;;3.20;99.90;;;;;;9938884;28;20688;-65
2023/02/08 11:21:21;;;;;;;10.52;5.13;;;3.20;99.90;;;;;;9939930;28;20038;-70
2023/02/08 11:26:34;;;;;;;7.03;4.55;;;3.30;99.90;;;;;;9939061;28;20049;-63
2023/02/08 11:31:25;;;;;;;9.75;3.85;;;3.40;99.90;;;;;;9937715;28;20093;-64
2023/02/08 11:36:16;;;;;;;8.98;3.92;;;3.40;99.90;;;;;;9938167;28;20029;-65
2023/02/08 11:41:17;;;;;;;8.98;4.72;;;3.40;99.70;;;;;;9923314;28;20039;-70
2023/02/08 11:46:09;;;;;;;8.48;4.38;;;3.60;99.60;;;;;;9936949;28;20058;-69
2023/02/08 11:51:02;;;;;;;8.20;4.13;;;3.60;99.50;;;;;;9937812;28;20031;-65
2023/02/08 11:56:03;;;;;;;10.20;4.78;;;3.80;99.50;;;;;;9938460;28;20362;-69
2023/02/08 12:01:04;;;;;;;10.60;4.15;;;3.80;99.20;;;;;;9936543;28;20039;-72
2023/02/08 12:06:17;;;;;;;11.82;4.72;;;3.90;98.90;;;;;;9937726;28;20031;-66
2023/02/08 12:11:17;;;;;;;8.52;3.95;;;4.00;99.00;;;;;;9935881;28;20731;-65
2023/02/08 12:16:37;;;;;;;10.27;4.68;;;4.10;98.60;;;;;;9922365;28;20054;-64
2023/02/08 12:21:42;;;;;;;7.75;4.13;;;4.20;98.50;;;;;;9918825;28;20062;-69
2023/02/08 12:27:02;;;;;;;7.53;4.50;;;4.30;98.60;;;;;;9937354;28;20011;-70
2023/02/08 12:31:59;;;;;;;6.63;4.22;;;4.60;98.20;;;;;;9936083;28;20104;-68
2023/02/08 12:42:48;;;;;;;8.90;3.55;;;4.80;97.50;;;;;;9938075;28;20219;-71
2023/02/08 12:48:00;;;;;;;9.27;4.45;;;4.90;97.10;;;;;;9936384;28;20031;-70
2023/02/08 12:52:59;;;;;;;8.05;4.43;;;5.00;96.90;;;;;;9936556;28;20501;-69
2023/02/08 12:57:53;;;;;;;9.95;5.40;;;5.20;96.80;;;;;;9948504;28;20018;-70
2023/02/08 13:03:00;;;;;;;10.70;4.68;;;5.30;96.70;;;;;;9944729;28;20139;-69
2023/02/08 13:08:08;;;;;;;13.32;4.82;;;5.70;96.50;;;;;;9947733;28;20027;-70
2023/02/08 13:13:19;;;;;;;9.95;5.18;;;5.70;96.30;;;;;;9926262;28;20145;-68
2023/02/08 13:18:19;;;;;;;9.30;4.32;;;5.70;96.10;;;;;;9945172;28;20038;-66
2023/02/08 13:23:27;;;;;;;8.50;4.25;;;5.80;96.10;;;;;;9946099;28;20030;-69
2023/02/08 13:28:21;;;;;;;12.25;5.97;;;6.00;95.90;;;;;;9945363;28;20026;-68
2023/02/08 13:33:21;;;;;;;9.00;4.85;;;6.20;95.60;;;;;;9942882;28;20023;-71
2023/02/08 13:38:31;;;;;;;8.57;3.65;;;6.30;95.70;;;;;;9942984;28;20035;-72
2023/02/08 13:43:29;;;;;;;7.15;4.30;;;6.30;95.30;;;;;;9942391;28;20116;-70
2023/02/08 13:48:20;;;;;;;7.07;4.00;;;6.30;95.20;;;;;;9925109;28;20035;-69
2023/02/08 13:53:12;;;;;;;6.93;3.83;;;6.20;94.90;;;;;;9944911;28;20102;-72
2023/02/08 13:58:12;;;;;;;88.70;42.63;;;6.40;94.90;;;;;;9943378;28;20194;-71
2023/02/08 14:03:22;;;;;;;15.27;7.85;;;6.60;94.80;;;;;;9916744;28;20553;-66
2023/02/08 14:08:27;;;;;;;13.07;6.93;;;6.40;94.50;;;;;;9942046;28;20062;-67
2023/02/08 14:13:27;;;;;;;13.60;5.82;;;6.30;94.30;;;;;;9941263;28;20046;-67
2023/02/08 14:18:25;;;;;;;13.05;5.28;;;6.30;94.20;;;;;;9939954;28;20286;-71
2023/02/08 14:23:23;;;;;;;13.35;5.72;;;6.10;94.10;;;;;;9943957;28;20038;-66
2023/02/08 14:28:44;;;;;;;10.05;4.95;;;6.00;93.90;;;;;;9924831;28;20015;-68
2023/02/08 14:33:39;;;;;;;9.60;4.43;;;5.90;94.00;;;;;;9941351;28;20465;-68
2023/02/08 14:38:49;;;;;;;8.17;3.70;;;5.90;93.90;;;;;;9935363;28;20038;-70
2023/02/08 14:43:41;;;;;;;7.95;4.55;;;5.80;93.90;;;;;;9940444;28;20973;-64
2023/02/08 14:48:34;;;;;;;11.13;4.47;;;5.70;93.80;;;;;;9937463;28;20125;-65
2023/02/08 14:53:40;;;;;;;6.70;4.03;;;5.60;93.80;;;;;;9940200;28;20051;-63
2023/02/08 14:58:33;;;;;;;;;;;5.50;93.90;;;;;;9943008;28;20031;-73
2023/02/08 15:03:29;;;;;;;11.35;4.97;;;5.50;93.40;;;;;;9924602;28;19922;-68
2023/02/08 15:08:20;;;;;;;9.13;3.45;;;5.40;93.40;;;;;;9941022;28;20054;-68
2023/02/08 15:13:18;;;;;;;6.68;3.75;;;5.40;93.30;;;;;;9924043;28;20476;-70
2023/02/08 15:18:19;;;;;;;8.63;4.57;;;5.40;93.10;;;;;;9941659;28;20381;-71
2023/02/08 15:23:21;;;;;;;6.90;3.88;;;5.40;93.10;;;;;;9922045;28;20035;-71
2023/02/08 15:28:20;;;;;;;7.40;4.28;;;5.30;93.20;;;;;;9940730;28;20516;-71
2023/02/08 15:33:16;;;;;;;8.25;3.95;;;5.30;93.10;;;;;;9939787;28;20030;-70
2023/02/08 15:38:18;;;;;;;10.27;3.78;;;5.30;93.10;;;;;;9939476;28;20027;-71
2023/02/08 15:43:12;;;;;;;10.63;5.40;;;5.20;93.20;;;;;;9940906;28;20054;-69
2023/02/08 15:48:06;;;;;;;11.55;4.68;;;5.30;93.30;;;;;;9942259;28;20086;-69
2023/02/08 15:53:06;;;;;;;8.55;3.92;;;5.20;93.60;;;;;;9943401;28;20493;-67
2023/02/08 15:58:05;;;;;;;8.15;3.92;;;5.20;93.40;;;;;;9942340;28;20456;-70
2023/02/08 16:02:59;;;;;;;9.75;4.78;;;5.10;93.40;;;;;;9923674;28;20577;-70
2023/02/08 16:07:50;;;;;;;6.60;4.10;;;5.10;93.50;;;;;;9938122;28;20054;-69
2023/02/08 16:12:43;;;;;;;8.23;4.15;;;5.00;93.50;;;;;;9920753;28;20585;-69
2023/02/08 16:17:41;;;;;;;6.65;3.95;;;5.00;93.60;;;;;;9937796;28;20023;-65
2023/02/08 16:22:32;;;;;;;9.98;4.25;;;4.90;93.60;;;;;;9937152;28;20026;-65
2023/02/08 16:27:29;;;;;;;8.50;4.15;;;4.80;93.70;;;;;;9936458;28;20023;-63
2023/02/08 16:32:33;;;;;;;7.60;4.13;;;4.70;93.80;;;;;;9937043;28;20027;-69
2023/02/08 16:37:31;;;;;;;7.25;3.97;;;4.60;93.80;;;;;;9936708;28;20085;-70
2023/02/08 16:42:30;;;;;;;8.23;4.05;;;4.50;93.90;;;;;;9941740;28;20042;-69
2023/02/08 16:47:35;;;;;;;8.20;4.15;;;4.40;94.00;;;;;;9938699;28;20022;-71
2023/02/08 16:52:26;;;;;;;7.63;4.03;;;4.30;94.10;;;;;;9921900;28;20552;-71
2023/02/08 16:57:17;;;;;;;10.38;4.53;;;4.30;94.20;;;;;;9941197;28;20023;-71
2023/02/08 17:02:11;;;;;;;9.98;4.03;;;4.20;94.20;;;;;;9938758;28;20125;-70
2023/02/08 17:07:02;;;;;;;7.68;4.68;;;4.10;94.30;;;;;;9937755;28;20404;-70
2023/02/08 17:11:53;;;;;;;9.20;4.38;;;4.00;94.40;;;;;;9938127;28;20117;-70
2023/02/08 17:16:43;;;;;;;9.85;4.50;;;4.00;94.60;;;;;;9937188;28;20043;-70
2023/02/08 17:21:34;;;;;;;7.50;4.80;;;3.90;94.60;;;;;;9940406;28;20062;-71
2023/02/08 17:26:34;;;;;;;6.38;3.60;;;3.80;94.70;;;;;;9937327;28;20027;-69
2023/02/08 17:31:27;;;;;;;11.70;6.20;;;3.80;94.80;;;;;;9939167;28;20041;-70
2023/02/08 17:36:18;;;;;;;11.00;4.90;;;3.70;94.90;;;;;;9939852;28;20034;-68
2023/02/08 17:41:13;;;;;;;9.23;4.53;;;3.60;95.00;;;;;;9940870;28;20511;-68
2023/02/08 17:46:17;;;;;;;14.18;5.07;;;3.60;95.10;;;;;;9939647;28;20705;-71
2023/02/08 17:51:13;;;;;;;6.78;4.40;;;3.60;95.20;;;;;;9946234;28;20029;-70
2023/02/08 17:56:04;;;;;;;;;;;3.50;95.30;;;;;;9953182;28;20054;-70
2023/02/08 18:00:54;;;;;;;7.00;3.40;;;3.50;95.40;;;;;;9943437;28;19953;-71
2023/02/08 18:05:45;;;;;;;8.05;3.90;;;3.40;95.50;;;;;;9927925;28;20027;-69
2023/02/08 18:10:36;;;;;;;13.30;4.53;;;3.40;95.70;;;;;;9944068;28;20377;-70
2023/02/08 18:15:26;;;;;;;11.98;5.00;;;3.30;95.90;;;;;;9943844;28;20121;-70
2023/02/08 18:20:17;;;;;;;9.20;4.95;;;3.30;95.90;;;;;;9948413;28;20050;-70
2023/02/08 18:25:09;;;;;;;7.45;4.70;;;3.30;96.00;;;;;;9943303;28;20039;-70
2023/02/08 18:30:00;;;;;;;11.02;4.05;;;3.30;96.00;;;;;;9943243;28;20034;-68
2023/02/08 18:34:51;;;;;;;9.15;4.22;;;3.30;96.00;;;;;;9940387;28;20022;-70
2023/02/08 18:39:42;;;;;;;80.45;33.55;;;3.30;96.10;;;;;;9940759;28;20596;-70
2023/02/08 18:44:35;;;;;;;58.88;24.05;;;3.40;96.10;;;;;;9922735;28;20520;-72
2023/02/08 18:49:26;;;;;;;21.75;12.20;;;3.50;96.00;;;;;;9923146;28;20049;-71
2023/02/08 18:54:17;;;;;;;15.73;6.05;;;3.30;96.20;;;;;;9942124;28;20456;-70
2023/02/08 18:59:08;;;;;;;14.43;6.53;;;3.20;96.20;;;;;;9939902;28;20015;-70
2023/02/08 19:03:59;;;;;;;13.60;5.07;;;3.10;96.30;;;;;;9938929;28;20047;-68
2023/02/08 19:08:52;;;;;;;12.07;5.78;;;3.10;96.50;;;;;;9940251;28;20694;-66
2023/02/08 19:13:43;;;;;;;10.85;5.38;;;3.00;96.50;;;;;;9940289;28;20046;-68
2023/02/08 19:18:34;;;;;;;13.60;5.35;;;3.00;96.50;;;;;;9939518;28;20027;-68
2023/02/08 19:23:24;;;;;;;11.43;5.10;;;2.90;96.60;;;;;;9938425;28;20038;-70
2023/02/08 19:28:15;;;;;;;6.97;4.65;;;2.90;96.70;;;;;;9938624;28;20081;-68
2023/02/08 19:33:06;;;;;;;9.73;5.43;;;2.90;96.60;;;;;;9938961;28;20053;-69
2023/02/08 19:37:57;;;;;;;10.77;5.53;;;2.90;96.70;;;;;;9938741;28;20096;-72
2023/02/08 19:42:48;;;;;;;8.93;4.80;;;2.80;96.70;;;;;;9939212;28;20042;-71
2023/02/08 19:47:40;;;;;;;10.55;4.55;;;2.70;96.80;;;;;;9939198;28;20825;-69
2023/02/08 19:52:31;;;;;;;12.05;5.10;;;2.70;96.90;;;;;;9922734;28;20085;-74
2023/02/08 19:57:22;;;;;;;11.15;4.85;;;2.60;96.90;;;;;;9942820;28;20078;-72
2023/02/08 20:02:14;;;;;;;12.80;9.10;;;2.60;96.90;;;;;;9939490;28;20461;-73
2023/02/08 20:07:05;;;;;;;11.35;5.28;;;2.60;96.90;;;;;;9937922;28;20053;-73
2023/02/08 20:11:56;;;;;;;14.57;5.97;;;2.50;97.10;;;;;;9938022;28;20030;-74
2023/02/08 20:16:47;;;;;;;14.02;6.35;;;2.60;97.10;;;;;;9937072;28;20078;-68
2023/02/08 20:21:41;;;;;;;12.57;6.43;;;2.60;97.10;;;;;;9936285;28;20046;-68
2023/02/08 20:26:31;;;;;;;8.88;4.85;;;2.50;97.10;;;;;;9922674;28;20065;-68
2023/02/08 20:31:28;;;;;;;8.85;4.43;;;2.40;97.20;;;;;;9938852;28;20058;-68
2023/02/08 20:36:23;;;;;;;11.60;4.80;;;2.40;97.10;;;;;;9935984;28;20018;-71
2023/02/08 20:41:15;;;;;;;11.68;4.15;;;2.50;97.20;;;;;;9937794;28;20490;-70
2023/02/08 20:46:15;;;;;;;9.63;4.43;;;2.50;97.30;;;;;;9937162;28;20049;-67
2023/02/08 20:51:12;;;;;;;8.13;4.75;;;2.50;97.20;;;;;;9938732;28;20370;-66
2023/02/08 20:56:05;;;;;;;7.03;4.10;;;2.50;97.30;;;;;;9922493;28;20138;-68
2023/02/08 21:00:55;;;;;;;8.25;4.43;;;2.50;97.30;;;;;;9938244;28;20039;-67
2023/02/08 21:05:46;;;;;;;10.27;4.60;;;2.40;97.30;;;;;;9939853;28;20700;-65
2023/02/08 21:10:39;;;;;;;10.68;4.65;;;2.40;97.30;;;;;;9941511;28;20481;-63
2023/02/08 21:15:30;;;;;;;9.45;4.57;;;2.40;97.30;;;;;;9940429;28;20102;-65
2023/02/08 21:20:21;;;;;;;9.57;4.95;;;2.40;97.30;;;;;;9939487;28;20086;-69
2023/02/08 21:25:11;;;;;;;10.07;4.05;;;2.40;97.30;;;;;;9945272;28;20485;-69
2023/02/08 21:30:02;;;;;;;9.60;4.32;;;2.30;97.30;;;;;;9929586;28;20027;-73
2023/02/08 21:34:53;;;;;;;144.20;52.38;;;2.20;97.40;;;;;;9954097;28;20022;-66
2023/02/08 21:39:44;;;;;;;43.10;21.83;;;2.40;97.20;;;;;;9948992;28;20508;-67
2023/02/08 21:44:35;;;;;;;11.90;6.53;;;2.40;97.20;;;;;;9945892;28;20501;-67
2023/02/08 21:54:41;;;;;;;16.75;6.10;;;2.20;97.40;;;;;;9948930;28;20474;-70
2023/02/08 21:59:36;;;;;;;14.10;5.07;;;2.00;97.40;;;;;;9948768;28;20519;-69
2023/02/08 22:04:27;;;;;;;11.67;4.77;;;2.00;97.50;;;;;;9948152;28;20046;-71
2023/02/08 22:09:19;;;;;;;13.02;5.13;;;2.00;97.40;;;;;;9949213;28;20033;-68
2023/02/08 22:14:10;;;;;;;11.85;5.00;;;2.00;97.50;;;;;;9931827;28;20046;-70
2023/02/08 22:19:01;;;;;;;11.90;5.30;;;2.00;97.50;;;;;;9948808;28;20019;-69
2023/02/08 22:23:52;;;;;;;12.50;5.50;;;2.00;97.50;;;;;;9947346;28;20045;-69
2023/02/08 22:28:43;;;;;;;10.45;4.88;;;2.00;97.50;;;;;;9949793;28;20019;-71
2023/02/08 22:33:33;;;;;;;11.40;5.30;;;1.90;97.50;;;;;;9948056;28;20031;-68
2023/02/08 22:38:24;;;;;;;8.65;4.50;;;2.00;97.60;;;;;;9947906;28;20031;-68
2023/02/08 22:43:15;;;;;;;12.48;5.13;;;2.00;97.60;;;;;;9945589;28;20031;-72
2023/02/08 22:48:06;;;;;;;9.68;4.55;;;2.00;97.60;;;;;;9947716;28;20065;-71
2023/02/08 22:52:56;;;;;;;11.25;5.25;;;2.00;97.60;;;;;;9947254;28;20058;-69
2023/02/08 22:57:47;;;;;;;10.95;5.10;;;1.90;97.70;;;;;;9945226;28;20018;-70
2023/02/08 23:02:38;;;;;;;10.32;5.72;;;1.90;97.70;;;;;;9946009;28;20097;-69
2023/02/08 23:07:29;;;;;;;13.48;5.97;;;1.90;97.70;;;;;;9940605;28;20030;-68
2023/02/08 23:12:19;;;;;;;9.90;5.10;;;1.80;97.70;;;;;;9946106;28;20396;-69
2023/02/08 23:17:10;;;;;;;14.02;5.38;;;1.80;97.80;;;;;;9938021;28;20059;-69
2023/02/08 23:22:01;;;;;;;11.48;5.05;;;1.70;97.90;;;;;;9945961;28;20035;-68
2023/02/08 23:26:51;;;;;;;14.30;5.57;;;1.70;98.00;;;;;;9954149;28;20062;-68
2023/02/08 23:31:43;;;;;;;13.38;5.60;;;1.70;98.00;;;;;;9945369;28;20019;-69
2023/02/08 23:36:34;;;;;;;12.88;5.32;;;1.70;98.10;;;;;;9944837;28;20389;-67
2023/02/08 23:41:24;;;;;;;9.52;5.78;;;1.70;98.10;;;;;;9924983;28;20049;-68
2023/02/08 23:46:22;;;;;;;13.43;5.55;;;1.60;98.10;;;;;;9944282;28;20034;-68
2023/02/08 23:51:14;;;;;;;11.80;5.22;;;1.60;98.20;;;;;;9952036;28;20446;-68
2023/02/08 23:56:15;;;;;;;9.38;5.25;;;1.60;98.30;;;;;;9928501;28;20033;-68
